Terminal Aerodrome Forecast
Issued by NWS Mt. Holly, NJ

Home | Current Version | Previous Version | Text Only | Print | Product List | Glossary On
Versions: 1 2 3 4 5 6 7 8 9 10 11 12 13 14 15 16 17 18 19
369
FTUS41 KPHI 241143
TAFABE
TAF
KABE 241143Z 2412/2512 10010KT P6SM VCSH FEW005 OVC015
      TEMPO 2412/2413 2SM SHRA SCT003 OVC009
     FM241400 VRB04KT P6SM BKN020
     FM241700 27007KT P6SM VCSH BKN025
     FM242100 32006KT P6SM BKN050 PROB30 2421/2424 4SM -TSRA
      OVC025CB
     FM250200 03006KT P6SM BKN060
     FM250500 00000KT P6SM SCT060=

USA.gov is the U.S. government's official web portal to all federal, state and local government web resources and services.